sensor_id;sensor_type;location;lat;lon;timestamp;pressure;altitude;pressure_sealevel;temperature;humidity
74975;BME280;68459;50.836;19.138;2023-06-01T00:00:39;98818.56;;;10.98;56.15
74975;BME280;68459;50.836;19.138;2023-06-01T00:04:04;98819.41;;;10.92;56.76
74975;BME280;68459;50.836;19.138;2023-06-01T00:07:10;98821.59;;;10.84;56.57
74975;BME280;68459;50.836;19.138;2023-06-01T00:10:14;98824.56;;;10.76;56.96
74975;BME280;68459;50.836;19.138;2023-06-01T00:13:19;98819.91;;;10.64;57.08
74975;BME280;68459;50.836;19.138;2023-06-01T00:16:23;98808.16;;;10.52;56.92
74975;BME280;68459;50.836;19.138;2023-06-01T00:19:27;98811.53;;;10.48;57.37
74975;BME280;68459;50.836;19.138;2023-06-01T00:22:31;98814.03;;;10.43;57.19
74975;BME280;68459;50.836;19.138;2023-06-01T00:25:36;98815.28;;;10.40;57.75
74975;BME280;68459;50.836;19.138;2023-06-01T00:28:42;98817.00;;;10.34;58.10
74975;BME280;68459;50.836;19.138;2023-06-01T00:31:46;98808.75;;;10.29;57.88
74975;BME280;68459;50.836;19.138;2023-06-01T00:34:50;98804.03;;;10.25;58.20
74975;BME280;68459;50.836;19.138;2023-06-01T00:37:54;98801.06;;;10.26;58.41
74975;BME280;68459;50.836;19.138;2023-06-01T00:40:59;98802.94;;;10.26;58.15
74975;BME280;68459;50.836;19.138;2023-06-01T00:44:05;98804.22;;;10.23;58.61
74975;BME280;68459;50.836;19.138;2023-06-01T00:47:09;98798.03;;;10.23;58.55
74975;BME280;68459;50.836;19.138;2023-06-01T00:50:13;98802.38;;;10.17;58.84
74975;BME280;68459;50.836;19.138;2023-06-01T00:53:18;98798.22;;;10.15;59.13
74975;BME280;68459;50.836;19.138;2023-06-01T00:56:23;98801.75;;;10.15;59.11
74975;BME280;68459;50.836;19.138;2023-06-01T00:59:29;98791.78;;;10.16;59.02
74975;BME280;68459;50.836;19.138;2023-06-01T01:02:34;98791.63;;;10.11;58.90
74975;BME280;68459;50.836;19.138;2023-06-01T01:05:40;98788.75;;;10.06;58.97
74975;BME280;68459;50.836;19.138;2023-06-01T01:08:52;98793.53;;;10.04;60.20
74975;BME280;68459;50.836;19.138;2023-06-01T01:12:17;98791.88;;;10.02;59.62
74975;BME280;68459;50.836;19.138;2023-06-01T01:15:32;98791.06;;;10.02;59.97
74975;BME280;68459;50.836;19.138;2023-06-01T01:18:49;98786.75;;;9.94;59.92
74975;BME280;68459;50.836;19.138;2023-06-01T01:22:07;98788.66;;;9.87;60.22
74975;BME280;68459;50.836;19.138;2023-06-01T01:25:39;98790.16;;;9.83;61.04
74975;BME280;68459;50.836;19.138;2023-06-01T01:29:06;98787.44;;;9.83;59.41
74975;BME280;68459;50.836;19.138;2023-06-01T01:32:12;98784.78;;;9.77;59.63
74975;BME280;68459;50.836;19.138;2023-06-01T01:35:18;98784.63;;;9.72;60.33
74975;BME280;68459;50.836;19.138;2023-06-01T01:38:23;98782.34;;;9.69;60.20
74975;BME280;68459;50.836;19.138;2023-06-01T01:41:28;98782.16;;;9.63;60.42
74975;BME280;68459;50.836;19.138;2023-06-01T01:44:33;98772.63;;;9.61;60.85
74975;BME280;68459;50.836;19.138;2023-06-01T01:47:43;98778.63;;;9.63;60.87
74975;BME280;68459;50.836;19.138;2023-06-01T01:50:57;98772.63;;;9.61;60.76
74975;BME280;68459;50.836;19.138;2023-06-01T01:54:06;98774.31;;;9.55;60.98
74975;BME280;68459;50.836;19.138;2023-06-01T01:57:13;98770.41;;;9.51;60.58
74975;BME280;68459;50.836;19.138;2023-06-01T02:00:20;98766.69;;;9.46;60.75
74975;BME280;68459;50.836;19.138;2023-06-01T02:03:25;98772.72;;;9.41;61.46
74975;BME280;68459;50.836;19.138;2023-06-01T02:06:29;98762.59;;;9.37;61.14
74975;BME280;68459;50.836;19.138;2023-06-01T02:09:35;98765.31;;;9.30;61.39
74975;BME280;68459;50.836;19.138;2023-06-01T02:12:40;98758.69;;;9.26;61.37
74975;BME280;68459;50.836;19.138;2023-06-01T02:15:45;98756.63;;;9.21;61.55
74975;BME280;68459;50.836;19.138;2023-06-01T02:18:49;98767.44;;;9.15;61.77
74975;BME280;68459;50.836;19.138;2023-06-01T02:21:53;98766.63;;;9.14;61.82
74975;BME280;68459;50.836;19.138;2023-06-01T02:24:57;98756.06;;;9.13;61.77
74975;BME280;68459;50.836;19.138;2023-06-01T02:28:01;98760.00;;;9.10;62.04
74975;BME280;68459;50.836;19.138;2023-06-01T02:31:07;98761.03;;;9.09;61.84
74975;BME280;68459;50.836;19.138;2023-06-01T02:34:11;98760.00;;;9.10;61.59
74975;BME280;68459;50.836;19.138;2023-06-01T02:37:15;98762.91;;;9.02;62.35
74975;BME280;68459;50.836;19.138;2023-06-01T02:40:19;98761.06;;;8.96;62.31
74975;BME280;68459;50.836;19.138;2023-06-01T02:43:23;98758.38;;;8.96;62.58
74975;BME280;68459;50.836;19.138;2023-06-01T02:46:28;98748.22;;;8.98;62.64
74975;BME280;68459;50.836;19.138;2023-06-01T02:49:32;98761.47;;;9.00;62.61
74975;BME280;68459;50.836;19.138;2023-06-01T02:52:36;98749.06;;;8.99;62.26
74975;BME280;68459;50.836;19.138;2023-06-01T02:55:40;98749.25;;;9.04;62.52
74975;BME280;68459;50.836;19.138;2023-06-01T02:58:44;98757.53;;;9.02;62.50
74975;BME280;68459;50.836;19.138;2023-06-01T03:01:57;98745.75;;;8.97;62.58
74975;BME280;68459;50.836;19.138;2023-06-01T03:05:01;98739.34;;;8.98;63.16
74975;BME280;68459;50.836;19.138;2023-06-01T03:08:09;98750.31;;;9.03;62.70
74975;BME280;68459;50.836;19.138;2023-06-01T03:11:12;98745.50;;;9.11;63.05
74975;BME280;68459;50.836;19.138;2023-06-01T03:14:16;98751.69;;;9.18;62.23
74975;BME280;68459;50.836;19.138;2023-06-01T03:17:23;98755.81;;;9.21;62.58
74975;BME280;68459;50.836;19.138;2023-06-01T03:20:27;98747.94;;;9.19;62.58
74975;BME280;68459;50.836;19.138;2023-06-01T03:23:31;98747.94;;;9.19;62.66
74975;BME280;68459;50.836;19.138;2023-06-01T03:26:35;98756.22;;;9.24;62.88
74975;BME280;68459;50.836;19.138;2023-06-01T03:29:39;98741.25;;;9.35;62.54
74975;BME280;68459;50.836;19.138;2023-06-01T03:32:45;98739.75;;;9.46;62.48
74975;BME280;68459;50.836;19.138;2023-06-01T03:35:48;98743.88;;;9.55;62.02
74975;BME280;68459;50.836;19.138;2023-06-01T03:38:53;98739.34;;;9.49;62.46
74975;BME280;68459;50.836;19.138;2023-06-01T03:42:00;98743.06;;;9.48;61.99
74975;BME280;68459;50.836;19.138;2023-06-01T03:45:05;98733.34;;;9.47;62.27
74975;BME280;68459;50.836;19.138;2023-06-01T03:48:11;98733.34;;;9.47;62.35
74975;BME280;68459;50.836;19.138;2023-06-01T03:51:15;98727.31;;;9.51;62.70
74975;BME280;68459;50.836;19.138;2023-06-01T03:54:19;98721.69;;;9.59;62.40
74975;BME280;68459;50.836;19.138;2023-06-01T03:57:25;98728.69;;;9.67;62.52
74975;BME280;68459;50.836;19.138;2023-06-01T04:00:29;98720.78;;;9.72;62.16
74975;BME280;68459;50.836;19.138;2023-06-01T04:03:36;98719.06;;;9.84;62.25
74975;BME280;68459;50.836;19.138;2023-06-01T04:06:40;98713.19;;;9.94;62.49
74975;BME280;68459;50.836;19.138;2023-06-01T04:09:48;98714.78;;;10.01;62.39
74975;BME280;68459;50.836;19.138;2023-06-01T04:12:52;98720.97;;;10.09;62.58
74975;BME280;68459;50.836;19.138;2023-06-01T04:16:00;98723.38;;;10.17;61.93
74975;BME280;68459;50.836;19.138;2023-06-01T04:19:05;98720.00;;;10.28;62.49
74975;BME280;68459;50.836;19.138;2023-06-01T04:22:09;98715.78;;;10.39;61.62
74975;BME280;68459;50.836;19.138;2023-06-01T04:25:14;98704.25;;;10.50;62.41
74975;BME280;68459;50.836;19.138;2023-06-01T04:28:22;98699.78;;;10.62;61.33
74975;BME280;68459;50.836;19.138;2023-06-01T04:31:27;98697.78;;;10.76;62.27
74975;BME280;68459;50.836;19.138;2023-06-01T04:34:33;98698.47;;;10.89;61.60
74975;BME280;68459;50.836;19.138;2023-06-01T04:37:38;98701.84;;;11.03;61.08
74975;BME280;68459;50.836;19.138;2023-06-01T04:40:45;98700.75;;;11.22;60.53
74975;BME280;68459;50.836;19.138;2023-06-01T04:43:49;98701.78;;;11.39;61.45
74975;BME280;68459;50.836;19.138;2023-06-01T04:46:55;98696.00;;;11.54;60.52
74975;BME280;68459;50.836;19.138;2023-06-01T04:50:00;98703.81;;;11.74;60.60
74975;BME280;68459;50.836;19.138;2023-06-01T04:53:06;98702.72;;;11.93;60.44
74975;BME280;68459;50.836;19.138;2023-06-01T04:56:10;98697.81;;;12.13;59.24
74975;BME280;68459;50.836;19.138;2023-06-01T04:59:14;98698.56;;;12.32;59.57
74975;BME280;68459;50.836;19.138;2023-06-01T05:02:18;98699.75;;;12.48;59.19
74975;BME280;68459;50.836;19.138;2023-06-01T05:05:24;98692.00;;;12.63;59.32
74975;BME280;68459;50.836;19.138;2023-06-01T05:08:27;98691.63;;;12.83;58.27
74975;BME280;68459;50.836;19.138;2023-06-01T05:11:33;98697.25;;;13.05;58.04
74975;BME280;68459;50.836;19.138;2023-06-01T05:14:37;98697.09;;;13.23;58.08
74975;BME280;68459;50.836;19.138;2023-06-01T05:17:41;98696.34;;;13.39;57.73
74975;BME280;68459;50.836;19.138;2023-06-01T05:20:50;98678.50;;;13.55;57.18
74975;BME280;68459;50.836;19.138;2023-06-01T05:23:54;98694.47;;;13.68;57.10
74975;BME280;68459;50.836;19.138;2023-06-01T05:26:58;98687.47;;;13.84;57.10
74975;BME280;68459;50.836;19.138;2023-06-01T05:30:02;98682.84;;;14.01;56.73
74975;BME280;68459;50.836;19.138;2023-06-01T05:33:07;98685.09;;;14.21;56.55
74975;BME280;68459;50.836;19.138;2023-06-01T05:36:13;98689.44;;;14.39;56.30
74975;BME280;68459;50.836;19.138;2023-06-01T05:39:17;98678.94;;;14.59;56.06
74975;BME280;68459;50.836;19.138;2023-06-01T05:42:21;98674.13;;;14.83;55.53
74975;BME280;68459;50.836;19.138;2023-06-01T05:45:25;98665.97;;;15.05;55.10
74975;BME280;68459;50.836;19.138;2023-06-01T05:48:29;98661.88;;;15.24;54.75
74975;BME280;68459;50.836;19.138;2023-06-01T05:51:35;98664.28;;;15.42;54.60
74975;BME280;68459;50.836;19.138;2023-06-01T05:54:40;98667.81;;;15.64;54.33
74975;BME280;68459;50.836;19.138;2023-06-01T05:57:44;98663.97;;;15.87;53.86
74975;BME280;68459;50.836;19.138;2023-06-01T06:00:49;98658.41;;;16.04;53.68
74975;BME280;68459;50.836;19.138;2023-06-01T06:03:53;98664.81;;;16.20;53.37
74975;BME280;68459;50.836;19.138;2023-06-01T06:06:59;98664.13;;;16.39;52.62
74975;BME280;68459;50.836;19.138;2023-06-01T06:10:03;98665.63;;;16.57;52.41
74975;BME280;68459;50.836;19.138;2023-06-01T06:13:07;98666.56;;;16.73;52.37
74975;BME280;68459;50.836;19.138;2023-06-01T06:16:11;98667.19;;;16.85;52.12
74975;BME280;68459;50.836;19.138;2023-06-01T06:19:15;98668.88;;;16.96;52.04
74975;BME280;68459;50.836;19.138;2023-06-01T06:22:20;98664.56;;;17.05;51.84
74975;BME280;68459;50.836;19.138;2023-06-01T06:25:24;98668.16;;;17.16;51.77
74975;BME280;68459;50.836;19.138;2023-06-01T06:28:28;98667.69;;;17.29;51.39
74975;BME280;68459;50.836;19.138;2023-06-01T06:31:31;98664.47;;;17.48;51.35
74975;BME280;68459;50.836;19.138;2023-06-01T06:34:35;98665.38;;;17.68;50.64
74975;BME280;68459;50.836;19.138;2023-06-01T06:37:41;98668.66;;;17.86;50.47
74975;BME280;68459;50.836;19.138;2023-06-01T06:40:45;98657.78;;;18.01;50.15
74975;BME280;68459;50.836;19.138;2023-06-01T06:43:49;98660.50;;;18.11;49.90
74975;BME280;68459;50.836;19.138;2023-06-01T06:46:53;98664.63;;;18.24;49.57
74975;BME280;68459;50.836;19.138;2023-06-01T06:49:57;98660.81;;;18.35;48.99
74975;BME280;68459;50.836;19.138;2023-06-01T06:53:02;98658.06;;;18.45;48.71
74975;BME280;68459;50.836;19.138;2023-06-01T06:56:06;98664.59;;;18.54;48.68
74975;BME280;68459;50.836;19.138;2023-06-01T06:59:10;98648.19;;;18.64;48.29
74975;BME280;68459;50.836;19.138;2023-06-01T07:02:15;98649.31;;;18.73;48.26
74975;BME280;68459;50.836;19.138;2023-06-01T07:05:18;98650.09;;;18.79;48.00
74975;BME280;68459;50.836;19.138;2023-06-01T07:08:24;98645.44;;;18.84;47.56
74975;BME280;68459;50.836;19.138;2023-06-01T07:11:28;98651.16;;;18.98;47.55
74975;BME280;68459;50.836;19.138;2023-06-01T07:14:32;98654.09;;;19.07;47.00
74975;BME280;68459;50.836;19.138;2023-06-01T07:17:36;98649.44;;;19.12;46.91
74975;BME280;68459;50.836;19.138;2023-06-01T07:20:41;98644.75;;;19.18;46.68
74975;BME280;68459;50.836;19.138;2023-06-01T07:23:46;98645.03;;;19.27;46.29
74975;BME280;68459;50.836;19.138;2023-06-01T07:26:50;98642.56;;;19.30;46.29
74975;BME280;68459;50.836;19.138;2023-06-01T07:29:53;98642.44;;;19.45;45.68
74975;BME280;68459;50.836;19.138;2023-06-01T07:32:58;98640.28;;;19.52;45.41
74975;BME280;68459;50.836;19.138;2023-06-01T07:36:02;98639.44;;;19.57;45.13
74975;BME280;68459;50.836;19.138;2023-06-01T07:39:08;98632.56;;;19.60;45.06
74975;BME280;68459;50.836;19.138;2023-06-01T07:42:12;98624.88;;;19.62;44.82
74975;BME280;68459;50.836;19.138;2023-06-01T07:45:17;98621.84;;;19.68;44.81
74975;BME280;68459;50.836;19.138;2023-06-01T07:48:21;98626.16;;;19.79;44.01
74975;BME280;68459;50.836;19.138;2023-06-01T07:51:25;98626.09;;;19.84;43.80
74975;BME280;68459;50.836;19.138;2023-06-01T07:54:30;98626.88;;;19.90;43.77
74975;BME280;68459;50.836;19.138;2023-06-01T07:57:34;98629.78;;;20.09;42.91
74975;BME280;68459;50.836;19.138;2023-06-01T08:00:38;98621.50;;;20.14;43.06
74975;BME280;68459;50.836;19.138;2023-06-01T08:03:42;98625.03;;;20.19;42.61
74975;BME280;68459;50.836;19.138;2023-06-01T08:06:46;98630.78;;;20.18;42.71
74975;BME280;68459;50.836;19.138;2023-06-01T08:09:52;98623.84;;;20.25;42.66
74975;BME280;68459;50.836;19.138;2023-06-01T08:12:55;98622.16;;;20.35;42.67
74975;BME280;68459;50.836;19.138;2023-06-01T08:16:00;98612.25;;;20.39;41.86
74975;BME280;68459;50.836;19.138;2023-06-01T08:19:04;98617.41;;;20.45;41.74
74975;BME280;68459;50.836;19.138;2023-06-01T08:22:08;98620.63;;;20.52;40.92
74975;BME280;68459;50.836;19.138;2023-06-01T08:25:15;98624.72;;;20.55;40.60
74975;BME280;68459;50.836;19.138;2023-06-01T08:28:20;98611.59;;;20.52;40.69
74975;BME280;68459;50.836;19.138;2023-06-01T08:31:24;98623.63;;;20.56;40.63
74975;BME280;68459;50.836;19.138;2023-06-01T08:34:29;98611.78;;;20.60;40.33
74975;BME280;68459;50.836;19.138;2023-06-01T08:37:33;98611.38;;;20.72;39.81
74975;BME280;68459;50.836;19.138;2023-06-01T08:40:38;98603.81;;;20.88;39.40
74975;BME280;68459;50.836;19.138;2023-06-01T08:43:43;98615.31;;;20.90;39.53
74975;BME280;68459;50.836;19.138;2023-06-01T08:46:54;98598.53;;;20.91;39.59
74975;BME280;68459;50.836;19.138;2023-06-01T08:49:58;98596.03;;;20.95;39.19
74975;BME280;68459;50.836;19.138;2023-06-01T08:53:04;98590.25;;;20.96;39.40
74975;BME280;68459;50.836;19.138;2023-06-01T08:56:10;98584.19;;;20.99;39.16
74975;BME280;68459;50.836;19.138;2023-06-01T08:59:15;98585.03;;;21.00;39.88
74975;BME280;68459;50.836;19.138;2023-06-01T09:02:19;98592.81;;;21.12;38.94
74975;BME280;68459;50.836;19.138;2023-06-01T09:05:23;98581.44;;;21.23;38.51
74975;BME280;68459;50.836;19.138;2023-06-01T09:08:27;98581.41;;;21.28;38.47
74975;BME280;68459;50.836;19.138;2023-06-01T09:11:32;98571.72;;;21.31;38.25
74975;BME280;68459;50.836;19.138;2023-06-01T09:14:36;98581.91;;;21.30;38.34
74975;BME280;68459;50.836;19.138;2023-06-01T09:17:41;98566.41;;;21.40;38.39
74975;BME280;68459;50.836;19.138;2023-06-01T09:20:48;98569.06;;;21.45;38.09
74975;BME280;68459;50.836;19.138;2023-06-01T09:23:55;98566.72;;;21.57;37.35
74975;BME280;68459;50.836;19.138;2023-06-01T09:27:00;98562.25;;;21.61;37.07
74975;BME280;68459;50.836;19.138;2023-06-01T09:30:06;98558.03;;;21.68;37.16
74975;BME280;68459;50.836;19.138;2023-06-01T09:33:11;98559.34;;;21.71;37.55
74975;BME280;68459;50.836;19.138;2023-06-01T09:36:23;98555.63;;;21.81;36.75
74975;BME280;68459;50.836;19.138;2023-06-01T09:39:32;98545.38;;;21.86;36.22
74975;BME280;68459;50.836;19.138;2023-06-01T09:42:39;98560.66;;;21.92;36.86
74975;BME280;68459;50.836;19.138;2023-06-01T09:45:42;98544.88;;;21.98;36.72
74975;BME280;68459;50.836;19.138;2023-06-01T09:48:46;98546.06;;;22.11;36.74
74975;BME280;68459;50.836;19.138;2023-06-01T09:51:52;98546.44;;;22.23;36.42
74975;BME280;68459;50.836;19.138;2023-06-01T09:55:11;98537.47;;;22.31;36.25
74975;BME280;68459;50.836;19.138;2023-06-01T09:58:19;98533.31;;;22.33;36.36
74975;BME280;68459;50.836;19.138;2023-06-01T10:01:27;98542.78;;;22.41;36.08
74975;BME280;68459;50.836;19.138;2023-06-01T10:04:33;98539.94;;;22.46;35.82
74975;BME280;68459;50.836;19.138;2023-06-01T10:07:42;98529.97;;;22.50;35.77
74975;BME280;68459;50.836;19.138;2023-06-01T10:10:48;98519.16;;;22.54;35.71
74975;BME280;68459;50.836;19.138;2023-06-01T10:13:55;98522.22;;;22.66;35.12
74975;BME280;68459;50.836;19.138;2023-06-01T10:17:00;98527.97;;;22.83;35.49
74975;BME280;68459;50.836;19.138;2023-06-01T10:20:05;98522.97;;;22.99;35.38
74975;BME280;68459;50.836;19.138;2023-06-01T10:23:10;98521.63;;;23.10;35.11
74975;BME280;68459;50.836;19.138;2023-06-01T10:26:38;98519.13;;;23.22;35.02
74975;BME280;68459;50.836;19.138;2023-06-01T10:29:48;98519.31;;;23.39;34.83
74975;BME280;68459;50.836;19.138;2023-06-01T10:32:55;98513.03;;;23.48;34.53
74975;BME280;68459;50.836;19.138;2023-06-01T10:35:58;98507.97;;;23.55;34.91
74975;BME280;68459;50.836;19.138;2023-06-01T10:39:22;98505.47;;;23.67;34.58
74975;BME280;68459;50.836;19.138;2023-06-01T10:42:39;98503.56;;;23.76;34.17
74975;BME280;68459;50.836;19.138;2023-06-01T10:45:44;98505.56;;;23.84;34.06
74975;BME280;68459;50.836;19.138;2023-06-01T10:48:53;98494.31;;;23.94;33.80
74975;BME280;68459;50.836;19.138;2023-06-01T10:52:23;98491.78;;;24.06;32.97
74975;BME280;68459;50.836;19.138;2023-06-01T10:55:28;98483.22;;;24.16;33.72
74975;BME280;68459;50.836;19.138;2023-06-01T10:58:32;98493.13;;;24.17;33.39
74975;BME280;68459;50.836;19.138;2023-06-01T11:01:38;98487.75;;;24.12;33.50
74975;BME280;68459;50.836;19.138;2023-06-01T11:04:44;98487.63;;;24.17;33.34
74975;BME280;68459;50.836;19.138;2023-06-01T11:07:48;98482.53;;;24.33;33.34
74975;BME280;68459;50.836;19.138;2023-06-01T11:10:55;98471.91;;;24.49;33.17
74975;BME280;68459;50.836;19.138;2023-06-01T11:14:11;98475.50;;;24.58;31.95
74975;BME280;68459;50.836;19.138;2023-06-01T11:17:28;98475.00;;;24.56;33.18
74975;BME280;68459;50.836;19.138;2023-06-01T11:20:38;98479.56;;;24.61;32.21
74975;BME280;68459;50.836;19.138;2023-06-01T11:23:43;98470.16;;;24.70;32.21
74975;BME280;68459;50.836;19.138;2023-06-01T11:26:50;98463.84;;;24.78;32.17
74975;BME280;68459;50.836;19.138;2023-06-01T11:29:55;98477.38;;;24.89;32.37
74975;BME280;68459;50.836;19.138;2023-06-01T11:33:01;98467.66;;;25.00;31.65
74975;BME280;68459;50.836;19.138;2023-06-01T11:36:09;98459.25;;;25.13;31.67
74975;BME280;68459;50.836;19.138;2023-06-01T11:39:18;98448.84;;;25.36;31.51
74975;BME280;68459;50.836;19.138;2023-06-01T11:42:34;98457.94;;;25.63;30.16
74975;BME280;68459;50.836;19.138;2023-06-01T11:45:39;98455.84;;;25.68;31.00
74975;BME280;68459;50.836;19.138;2023-06-01T11:48:58;98448.34;;;25.77;30.14
74975;BME280;68459;50.836;19.138;2023-06-01T11:52:04;98440.16;;;25.98;29.91
74975;BME280;68459;50.836;19.138;2023-06-01T11:55:12;98449.69;;;26.18;30.05
74975;BME280;68459;50.836;19.138;2023-06-01T11:58:21;98441.22;;;26.23;28.64
74975;BME280;68459;50.836;19.138;2023-06-01T12:01:26;98438.78;;;26.30;29.52
74975;BME280;68459;50.836;19.138;2023-06-01T12:04:32;98431.31;;;26.60;29.48
74975;BME280;68459;50.836;19.138;2023-06-01T12:07:47;98438.16;;;26.83;28.39
74975;BME280;68459;50.836;19.138;2023-06-01T12:10:53;98428.28;;;27.03;28.94
74975;BME280;68459;50.836;19.138;2023-06-01T12:13:58;98418.53;;;27.18;28.44
74975;BME280;68459;50.836;19.138;2023-06-01T12:17:03;98432.84;;;27.20;28.33
74975;BME280;68459;50.836;19.138;2023-06-01T12:20:10;98424.50;;;27.08;28.58
74975;BME280;68459;50.836;19.138;2023-06-01T12:23:15;98432.28;;;27.14;28.49
74975;BME280;68459;50.836;19.138;2023-06-01T12:26:35;98422.06;;;27.27;27.75
74975;BME280;68459;50.836;19.138;2023-06-01T12:29:40;98428.13;;;27.41;27.65
74975;BME280;68459;50.836;19.138;2023-06-01T12:32:46;98417.56;;;27.55;27.72
74975;BME280;68459;50.836;19.138;2023-06-01T12:35:52;98410.72;;;27.86;27.37
74975;BME280;68459;50.836;19.138;2023-06-01T12:38:58;98415.41;;;28.06;26.94
74975;BME280;68459;50.836;19.138;2023-06-01T12:42:04;98414.13;;;28.16;26.64
74975;BME280;68459;50.836;19.138;2023-06-01T12:45:10;98413.16;;;28.32;26.37
74975;BME280;68459;50.836;19.138;2023-06-01T12:48:29;98400.56;;;28.35;25.78
74975;BME280;68459;50.836;19.138;2023-06-01T12:51:37;98406.66;;;28.28;26.01
74975;BME280;68459;50.836;19.138;2023-06-01T12:54:42;98406.78;;;28.44;26.14
74975;BME280;68459;50.836;19.138;2023-06-01T12:57:52;98400.38;;;28.92;25.54
74975;BME280;68459;50.836;19.138;2023-06-01T13:00:57;98409.72;;;29.52;25.36
74975;BME280;68459;50.836;19.138;2023-06-01T13:04:02;98413.50;;;30.03;24.55
74975;BME280;68459;50.836;19.138;2023-06-01T13:07:08;98403.16;;;30.67;23.95
74975;BME280;68459;50.836;19.138;2023-06-01T13:10:12;98391.69;;;31.61;23.15
74975;BME280;68459;50.836;19.138;2023-06-01T13:13:16;98394.44;;;32.98;21.41
74975;BME280;68459;50.836;19.138;2023-06-01T13:16:21;98400.84;;;34.40;20.55
74975;BME280;68459;50.836;19.138;2023-06-01T13:19:25;98398.38;;;35.69;20.26
74975;BME280;68459;50.836;19.138;2023-06-01T13:22:30;98394.91;;;36.64;19.80
74975;BME280;68459;50.836;19.138;2023-06-01T13:25:33;98414.56;;;38.08;18.11
74975;BME280;68459;50.836;19.138;2023-06-01T13:28:38;98401.22;;;38.64;18.13
74975;BME280;68459;50.836;19.138;2023-06-01T13:31:41;98405.63;;;39.44;17.78
74975;BME280;68459;50.836;19.138;2023-06-01T13:34:45;98389.28;;;40.43;16.29
74975;BME280;68459;50.836;19.138;2023-06-01T13:37:51;98400.63;;;41.49;15.78
74975;BME280;68459;50.836;19.138;2023-06-01T13:40:56;98387.84;;;41.01;15.26
74975;BME280;68459;50.836;19.138;2023-06-01T13:43:59;98386.56;;;40.59;15.45
74975;BME280;68459;50.836;19.138;2023-06-01T13:47:04;98377.47;;;41.54;14.81
74975;BME280;68459;50.836;19.138;2023-06-01T13:50:09;98378.47;;;40.61;15.69
74975;BME280;68459;50.836;19.138;2023-06-01T13:53:16;98365.31;;;40.74;15.60
74975;BME280;68459;50.836;19.138;2023-06-01T13:56:19;98367.28;;;41.76;14.56
74975;BME280;68459;50.836;19.138;2023-06-01T13:59:25;98359.75;;;41.86;14.37
74975;BME280;68459;50.836;19.138;2023-06-01T14:02:30;98366.38;;;42.48;14.03
74975;BME280;68459;50.836;19.138;2023-06-01T14:05:35;98373.28;;;43.50;13.05
74975;BME280;68459;50.836;19.138;2023-06-01T14:08:54;98358.66;;;44.53;12.17
74975;BME280;68459;50.836;19.138;2023-06-01T14:11:58;98346.09;;;44.97;12.38
74975;BME280;68459;50.836;19.138;2023-06-01T14:15:01;98348.03;;;46.06;12.08
74975;BME280;68459;50.836;19.138;2023-06-01T14:18:06;98341.22;;;45.72;12.32
74975;BME280;68459;50.836;19.138;2023-06-01T14:21:11;98361.44;;;45.96;11.49
74975;BME280;68459;50.836;19.138;2023-06-01T14:24:16;98348.44;;;44.77;12.39
74975;BME280;68459;50.836;19.138;2023-06-01T14:27:20;98330.38;;;43.86;13.26
74975;BME280;68459;50.836;19.138;2023-06-01T14:30:24;98330.81;;;44.10;13.28
74975;BME280;68459;50.836;19.138;2023-06-01T14:33:29;98337.34;;;44.57;12.42
74975;BME280;68459;50.836;19.138;2023-06-01T14:36:33;98337.22;;;44.95;12.09
74975;BME280;68459;50.836;19.138;2023-06-01T14:39:49;98328.16;;;44.75;12.29
74975;BME280;68459;50.836;19.138;2023-06-01T14:42:53;98326.72;;;45.27;11.91
74975;BME280;68459;50.836;19.138;2023-06-01T14:45:57;98342.69;;;44.90;12.31
74975;BME280;68459;50.836;19.138;2023-06-01T14:49:01;98332.63;;;44.76;11.77
74975;BME280;68459;50.836;19.138;2023-06-01T14:52:06;98323.50;;;44.81;12.34
74975;BME280;68459;50.836;19.138;2023-06-01T14:55:12;98324.41;;;45.43;12.18
74975;BME280;68459;50.836;19.138;2023-06-01T14:58:16;98317.13;;;46.13;11.19
74975;BME280;68459;50.836;19.138;2023-06-01T15:01:20;98329.75;;;46.34;11.25
74975;BME280;68459;50.836;19.138;2023-06-01T15:04:26;98305.06;;;46.00;11.33
74975;BME280;68459;50.836;19.138;2023-06-01T15:07:30;98304.16;;;46.22;11.35
74975;BME280;68459;50.836;19.138;2023-06-01T15:10:35;98300.03;;;45.42;10.76
74975;BME280;68459;50.836;19.138;2023-06-01T15:13:39;98308.34;;;44.50;10.93
74975;BME280;68459;50.836;19.138;2023-06-01T15:16:44;98290.25;;;43.58;11.60
74975;BME280;68459;50.836;19.138;2023-06-01T15:19:48;98288.63;;;43.70;11.64
74975;BME280;68459;50.836;19.138;2023-06-01T15:22:51;98294.88;;;43.52;11.63
74975;BME280;68459;50.836;19.138;2023-06-01T15:25:56;98293.75;;;42.50;11.63
74975;BME280;68459;50.836;19.138;2023-06-01T15:29:00;98291.06;;;42.14;11.79
74975;BME280;68459;50.836;19.138;2023-06-01T15:32:05;98280.59;;;42.44;11.73
74975;BME280;68459;50.836;19.138;2023-06-01T15:35:09;98290.59;;;42.32;11.43
74975;BME280;68459;50.836;19.138;2023-06-01T15:38:13;98309.22;;;42.01;11.47
74975;BME280;68459;50.836;19.138;2023-06-01T15:41:18;98278.63;;;41.59;11.57
74975;BME280;68459;50.836;19.138;2023-06-01T15:44:23;98281.09;;;41.74;11.34
74975;BME280;68459;50.836;19.138;2023-06-01T15:47:26;98266.53;;;41.39;11.38
74975;BME280;68459;50.836;19.138;2023-06-01T15:50:30;98256.19;;;41.13;11.24
74975;BME280;68459;50.836;19.138;2023-06-01T15:53:34;98259.41;;;41.15;11.01
74975;BME280;68459;50.836;19.138;2023-06-01T15:56:41;98250.22;;;41.43;11.62
74975;BME280;68459;50.836;19.138;2023-06-01T15:59:45;98253.59;;;42.52;11.02
74975;BME280;68459;50.836;19.138;2023-06-01T16:02:49;98248.31;;;42.38;11.09
74975;BME280;68459;50.836;19.138;2023-06-01T16:05:53;98250.50;;;42.01;11.26
74975;BME280;68459;50.836;19.138;2023-06-01T16:08:57;98257.72;;;41.70;11.18
74975;BME280;68459;50.836;19.138;2023-06-01T16:12:03;98246.63;;;40.87;11.40
74975;BME280;68459;50.836;19.138;2023-06-01T16:15:07;98238.69;;;40.58;11.60